Flight Track Log - Related Links

Times and Time Zones

All times are in EST time to prevent confusion due to time zone crossing. See the UCA4809 flight status page for this flight to view local times or setup timezone preferences in your user account.

Time Position Orientation Groundspeed Altitude Reporting Facility
EST Latitude Longitude Course Direction KTS MPH feet Rate Location/Type
Mon 03:25:20 PM 40.5261 -80.3689 274° West 159 183 4,900  Level Cleveland Center
Mon 03:26:22 PM 40.5369 -80.4186 286° West 144 166 6,500 1,584 Climbing Cleveland Center
Mon 03:27:25 PM 40.5508 -80.4797 287° West 148 170 8,200 1,392 Climbing Cleveland Center
Mon 03:28:27 PM 40.5603 -80.5317 283° West 145 167 9,400 871 Climbing Cleveland Center
Mon 03:29:00 PM 40.6923 -80.5804 285° West  Level Estimated
Mon 03:29:29 PM 40.5722 -80.5861 286° West 159 183 10,000  Level Cleveland Center
Mon 03:30:00 PM 40.6961 -80.6531 274° West  Level FlightAware Approximate
Mon 03:30:31 PM 40.5856 -80.6511 285° West 188 216 10,000  Level Cleveland Center
Mon 03:31:33 PM 40.6000 -80.7236 285° West 203 234 10,000  Level Cleveland Center
Mon 03:32:35 PM 40.6139 -80.7936 285° West 199 229 10,000  Level Cleveland Center
Mon 03:33:37 PM 40.6311 -80.8786 285° West 200 230 10,000  Level Cleveland Center
Mon 03:34:39 PM 40.6453 -80.9489 285° West 200 230 10,000  Level Cleveland Center
Mon 03:35:41 PM 40.6606 -81.0178 286° West 198 228 10,000  Level Cleveland Center
Mon 03:36:43 PM 40.6753 -81.0956 284° West 199 229 10,000 -194 Level Cleveland Center
Mon 03:37:45 PM 40.6997 -81.1628 296° West 202 232 9,600 -484 Descending Cleveland Center
Mon 03:38:47 PM 40.7333 -81.2325 302° West 221 254 9,000 -290 Descending Cleveland Center
Mon 03:39:49 PM 40.7658 -81.3014 302° West 219 252 9,000  Level Cleveland Center
Mon 03:40:43 PM 40.7944 -81.3697 299° West 212 244 9,000  Level Cleveland Center
Mon 03:40:51 PM 40.7975 -81.3681 22° Northeast 214 246 9,000  Level Cleveland Center
Mon 03:41:26 PM 40.8178 -81.4147 300° West 211 243 9,000  Level Cleveland Center
Mon 03:41:53 PM 40.8294 -81.4344 308° West 212 244 9,000  Level Cleveland Center
Mon 03:42:20 PM 40.8458 -81.4744 298° West 212 244 9,000  Level Cleveland Center
Mon 03:42:55 PM 40.8606 -81.5011 306° West 212 244 9,000  Level Cleveland Center
Mon 03:43:21 PM 40.8758 -81.5400 297° West 210 242 9,000  Level Cleveland Center
Mon 03:43:56 PM 40.8972 -81.5800 305° West 214 246 9,000  Level Cleveland Center
Mon 03:44:27 PM 40.9128 -81.6178 299° West 215 247 9,000  Level Cleveland Center
Mon 03:44:58 PM 40.9283 -81.6478 304° West 214 246 9,000  Level Cleveland Center
Mon 03:45:28 PM 40.9489 -81.6817 309° West 221 254 9,000  Level Cleveland Center
Mon 03:46:00 PM 40.9822 -81.6894 350° North 243 280 9,000  Level Cleveland Center
Mon 03:46:41 PM 41.0269 -81.6997 350° North 254 292 9,000  Level Cleveland Center
Mon 03:47:02 PM 41.0506 -81.7011 357° North 245 282 9,000  Level Cleveland Center
Mon 03:47:29 PM 41.0828 -81.7114 346° North 242 278 9,000  Level Cleveland Center
Mon 03:48:04 PM 41.1172 -81.7186 351° North 243 280 9,000 -179 Level Cleveland Center
Mon 03:48:36 PM 41.1547 -81.7283 349° North 242 278 8,800 -381 Descending Cleveland Center
Mon 03:49:07 PM 41.1869 -81.7361 350° North 249 287 8,600 -492 Descending Cleveland Center
Mon 03:49:37 PM 41.2267 -81.7428 353° North 266 306 8,300 -484 Descending Cleveland Center
Mon 03:50:09 PM 41.2611 -81.7369 North 272 313 8,100 -447 Descending Cleveland Center
Mon 03:51:11 PM 41.3386 -81.7253 North 267 307 7,600 -506 Descending Cleveland Center
Mon 03:51:32 PM 41.3692 -81.7239 North 273 314 7,400 -774 Descending Cleveland Center
Mon 03:52:13 PM 41.4094 -81.6917 31° Northeast 282 325 6,800 -1,273 Descending Cleveland Center
Mon 03:52:38 PM 41.4389 -81.6514 46° Northeast 299 344 6,000 -1,742 Descending Cleveland Center
Mon 03:53:15 PM 41.4658 -81.6178 43° Northeast 286 329 5,000 -2,073 Descending Cleveland Center
Mon 03:53:33 PM 41.4928 -81.6125 North 228 262 4,100 -1,839 Descending Cleveland Center
Mon 03:54:17 PM 41.5203 -81.6361 327° Northwest 231 266 3,100 -904 Descending Cleveland Center
Mon 03:54:46 PM 41.5186 -81.6728 267° West 178 205 3,000 -97 Descending Cleveland Center
Mon 03:55:19 PM 41.5039 -81.7039 238° Southwest 184 212 3,000  Level Cleveland Center
Mon 03:55:52 PM 41.4878 -81.7347 235° Southwest 171 197 3,000 -387 Level Cleveland Center
Mon 03:56:21 PM 41.4753 -81.7550 231° Southwest 174 200 2,600 -873 Descending Cleveland Center
Mon 03:56:47 PM 41.4633 -81.7728 228° Southwest 142 163 2,200 -677 Descending Cleveland Center
Mon 03:57:23 PM 41.4508 -81.7908 227° Southwest 143 165 1,900 -575 Descending Cleveland Center
Mon 03:58:00 PM 41.4386 -81.8133 234° Southwest 107 123 1,500 -581 Descending Cleveland Center
Mon 03:58:25 PM 41.4319 -81.8222 225° Southwest 120 138 1,300 -500 Descending Cleveland Center
Mon 03:59:00 PM 41.4214 -81.8411 233° Southwest 95 109 1,000 -484 Descending Cleveland Center
Mon 03:59:27 PM 41.4150 -81.8478 218° Southwest 102 117 800 -444 Descending Cleveland Center

Login

Don't have an account? Register now (free) for customized features, flight alerts, and more!